sensor_id;sensor_type;location;lat;lon;timestamp;P1;durP1;ratioP1;P2;durP2;ratioP2
79751;SDS011;69234;47.446;21.636;2024-03-07T00:00:44;16.23;;;15.67;;
79751;SDS011;69234;47.446;21.636;2024-03-07T00:01:16;17.43;;;16.77;;
79751;SDS011;69234;47.446;21.636;2024-03-07T00:01:46;17.57;;;17.00;;
79751;SDS011;69234;47.446;21.636;2024-03-07T00:02:18;17.63;;;17.10;;
79751;SDS011;69234;47.446;21.636;2024-03-07T00:02:49;17.73;;;17.47;;
79751;SDS011;69234;47.446;21.636;2024-03-07T00:03:23;17.27;;;17.00;;
79751;SDS011;69234;47.446;21.636;2024-03-07T00:03:55;16.33;;;15.90;;
79751;SDS011;69234;47.446;21.636;2024-03-07T00:04:26;17.23;;;16.73;;
79751;SDS011;69234;47.446;21.636;2024-03-07T00:04:57;15.97;;;15.47;;
79751;SDS011;69234;47.446;21.636;2024-03-07T00:05:28;15.93;;;15.50;;
79751;SDS011;69234;47.446;21.636;2024-03-07T00:05:59;17.07;;;16.53;;
79751;SDS011;69234;47.446;21.636;2024-03-07T00:06:31;17.63;;;17.00;;
79751;SDS011;69234;47.446;21.636;2024-03-07T00:07:05;17.80;;;17.13;;
79751;SDS011;69234;47.446;21.636;2024-03-07T00:07:38;17.00;;;16.37;;
79751;SDS011;69234;47.446;21.636;2024-03-07T00:08:10;17.67;;;17.00;;
79751;SDS011;69234;47.446;21.636;2024-03-07T00:08:41;16.60;;;16.03;;
79751;SDS011;69234;47.446;21.636;2024-03-07T00:09:12;16.87;;;16.33;;
79751;SDS011;69234;47.446;21.636;2024-03-07T00:09:45;16.93;;;16.63;;
79751;SDS011;69234;47.446;21.636;2024-03-07T00:10:16;16.97;;;16.80;;
79751;SDS011;69234;47.446;21.636;2024-03-07T00:10:47;16.73;;;16.37;;
79751;SDS011;69234;47.446;21.636;2024-03-07T00:11:19;16.67;;;16.20;;
79751;SDS011;69234;47.446;21.636;2024-03-07T00:11:50;16.93;;;16.33;;
79751;SDS011;69234;47.446;21.636;2024-03-07T00:12:21;16.87;;;16.27;;
79751;SDS011;69234;47.446;21.636;2024-03-07T00:14:24;17.37;;;16.63;;
79751;SDS011;69234;47.446;21.636;2024-03-07T00:14:58;16.77;;;16.13;;
79751;SDS011;69234;47.446;21.636;2024-03-07T00:15:29;15.27;;;15.17;;
79751;SDS011;69234;47.446;21.636;2024-03-07T00:16:00;15.93;;;15.57;;
79751;SDS011;69234;47.446;21.636;2024-03-07T00:16:33;15.87;;;15.43;;
79751;SDS011;69234;47.446;21.636;2024-03-07T00:18:22;16.07;;;15.53;;
79751;SDS011;69234;47.446;21.636;2024-03-07T00:18:53;15.70;;;15.20;;
79751;SDS011;69234;47.446;21.636;2024-03-07T00:19:25;15.80;;;15.27;;
79751;SDS011;69234;47.446;21.636;2024-03-07T00:19:59;16.03;;;15.57;;
79751;SDS011;69234;47.446;21.636;2024-03-07T00:21:50;16.23;;;15.70;;
79751;SDS011;69234;47.446;21.636;2024-03-07T00:22:23;16.17;;;15.57;;
79751;SDS011;69234;47.446;21.636;2024-03-07T00:23:01;16.30;;;15.73;;
79751;SDS011;69234;47.446;21.636;2024-03-07T00:26:01;15.80;;;15.20;;
79751;SDS011;69234;47.446;21.636;2024-03-07T00:26:32;15.57;;;15.07;;
79751;SDS011;69234;47.446;21.636;2024-03-07T00:27:03;15.57;;;15.10;;
79751;SDS011;69234;47.446;21.636;2024-03-07T00:29:00;17.00;;;16.40;;
79751;SDS011;69234;47.446;21.636;2024-03-07T00:29:31;15.97;;;15.43;;
79751;SDS011;69234;47.446;21.636;2024-03-07T00:30:05;16.27;;;15.67;;
79751;SDS011;69234;47.446;21.636;2024-03-07T00:30:38;16.33;;;15.77;;
79751;SDS011;69234;47.446;21.636;2024-03-07T00:31:10;15.97;;;15.53;;
79751;SDS011;69234;47.446;21.636;2024-03-07T00:31:41;15.70;;;15.20;;
79751;SDS011;69234;47.446;21.636;2024-03-07T00:32:12;16.17;;;15.60;;
79751;SDS011;69234;47.446;21.636;2024-03-07T00:32:44;16.27;;;15.73;;
79751;SDS011;69234;47.446;21.636;2024-03-07T00:33:17;16.23;;;15.70;;
79751;SDS011;69234;47.446;21.636;2024-03-07T00:33:51;16.10;;;15.50;;
79751;SDS011;69234;47.446;21.636;2024-03-07T00:34:22;16.63;;;16.10;;
79751;SDS011;69234;47.446;21.636;2024-03-07T00:34:53;16.23;;;15.93;;
79751;SDS011;69234;47.446;21.636;2024-03-07T00:35:24;16.23;;;15.87;;
79751;SDS011;69234;47.446;21.636;2024-03-07T00:35:55;16.60;;;16.00;;
79751;SDS011;69234;47.446;21.636;2024-03-07T00:36:26;15.90;;;15.30;;
79751;SDS011;69234;47.446;21.636;2024-03-07T00:36:57;15.47;;;14.87;;
79751;SDS011;69234;47.446;21.636;2024-03-07T00:37:29;15.83;;;15.27;;
79751;SDS011;69234;47.446;21.636;2024-03-07T00:38:01;15.67;;;15.40;;
79751;SDS011;69234;47.446;21.636;2024-03-07T00:38:31;16.07;;;16.03;;
79751;SDS011;69234;47.446;21.636;2024-03-07T00:39:02;16.07;;;15.73;;
79751;SDS011;69234;47.446;21.636;2024-03-07T00:39:33;15.43;;;14.93;;
79751;SDS011;69234;47.446;21.636;2024-03-07T00:40:05;16.13;;;15.60;;
79751;SDS011;69234;47.446;21.636;2024-03-07T00:40:36;15.00;;;14.47;;
79751;SDS011;69234;47.446;21.636;2024-03-07T00:41:07;15.53;;;15.03;;
79751;SDS011;69234;47.446;21.636;2024-03-07T00:41:40;15.73;;;15.23;;
79751;SDS011;69234;47.446;21.636;2024-03-07T00:42:11;16.47;;;15.97;;
79751;SDS011;69234;47.446;21.636;2024-03-07T00:42:42;15.83;;;15.43;;
79751;SDS011;69234;47.446;21.636;2024-03-07T00:43:13;17.27;;;16.80;;
79751;SDS011;69234;47.446;21.636;2024-03-07T00:43:45;15.60;;;15.43;;
79751;SDS011;69234;47.446;21.636;2024-03-07T00:44:16;15.23;;;14.93;;
79751;SDS011;69234;47.446;21.636;2024-03-07T00:44:47;15.57;;;15.43;;
79751;SDS011;69234;47.446;21.636;2024-03-07T00:45:19;15.80;;;15.63;;
79751;SDS011;69234;47.446;21.636;2024-03-07T00:45:50;15.80;;;15.30;;
79751;SDS011;69234;47.446;21.636;2024-03-07T00:46:21;15.53;;;15.07;;
79751;SDS011;69234;47.446;21.636;2024-03-07T00:46:52;15.50;;;15.00;;
79751;SDS011;69234;47.446;21.636;2024-03-07T00:47:23;15.50;;;14.90;;
79751;SDS011;69234;47.446;21.636;2024-03-07T00:47:53;15.67;;;15.13;;
79751;SDS011;69234;47.446;21.636;2024-03-07T00:48:24;15.17;;;15.13;;
79751;SDS011;69234;47.446;21.636;2024-03-07T00:49:00;15.33;;;15.20;;
79751;SDS011;69234;47.446;21.636;2024-03-07T00:50:35;16.17;;;15.67;;
79751;SDS011;69234;47.446;21.636;2024-03-07T00:51:06;16.07;;;15.57;;
79751;SDS011;69234;47.446;21.636;2024-03-07T00:51:39;15.43;;;15.23;;
79751;SDS011;69234;47.446;21.636;2024-03-07T00:52:10;14.07;;;13.87;;
79751;SDS011;69234;47.446;21.636;2024-03-07T00:52:40;14.13;;;13.67;;
79751;SDS011;69234;47.446;21.636;2024-03-07T00:53:14;15.07;;;14.77;;
79751;SDS011;69234;47.446;21.636;2024-03-07T00:54:52;14.93;;;14.57;;
79751;SDS011;69234;47.446;21.636;2024-03-07T00:55:26;14.13;;;13.73;;
79751;SDS011;69234;47.446;21.636;2024-03-07T00:56:43;15.03;;;14.50;;
79751;SDS011;69234;47.446;21.636;2024-03-07T00:57:17;14.10;;;13.63;;
79751;SDS011;69234;47.446;21.636;2024-03-07T00:58:47;14.37;;;13.93;;
79751;SDS011;69234;47.446;21.636;2024-03-07T00:59:19;14.57;;;14.07;;
79751;SDS011;69234;47.446;21.636;2024-03-07T01:01:42;13.77;;;13.53;;
79751;SDS011;69234;47.446;21.636;2024-03-07T01:02:13;13.97;;;13.83;;
79751;SDS011;69234;47.446;21.636;2024-03-07T01:02:45;13.67;;;13.57;;
79751;SDS011;69234;47.446;21.636;2024-03-07T01:03:17;13.80;;;13.47;;
79751;SDS011;69234;47.446;21.636;2024-03-07T01:03:48;13.93;;;13.50;;
79751;SDS011;69234;47.446;21.636;2024-03-07T01:04:18;14.50;;;14.07;;
79751;SDS011;69234;47.446;21.636;2024-03-07T01:04:49;14.53;;;14.07;;
79751;SDS011;69234;47.446;21.636;2024-03-07T01:05:20;14.20;;;13.70;;
79751;SDS011;69234;47.446;21.636;2024-03-07T01:07:33;13.23;;;12.80;;
79751;SDS011;69234;47.446;21.636;2024-03-07T01:08:05;13.63;;;13.13;;
79751;SDS011;69234;47.446;21.636;2024-03-07T01:08:36;13.97;;;13.47;;
79751;SDS011;69234;47.446;21.636;2024-03-07T01:09:08;14.13;;;13.63;;
79751;SDS011;69234;47.446;21.636;2024-03-07T01:09:44;14.13;;;13.63;;
79751;SDS011;69234;47.446;21.636;2024-03-07T01:10:15;12.60;;;12.20;;
79751;SDS011;69234;47.446;21.636;2024-03-07T01:10:46;13.33;;;12.97;;
79751;SDS011;69234;47.446;21.636;2024-03-07T01:11:18;13.20;;;12.87;;
79751;SDS011;69234;47.446;21.636;2024-03-07T01:11:52;13.33;;;12.97;;
79751;SDS011;69234;47.446;21.636;2024-03-07T01:13:22;13.50;;;13.43;;
79751;SDS011;69234;47.446;21.636;2024-03-07T01:13:56;12.13;;;12.10;;
79751;SDS011;69234;47.446;21.636;2024-03-07T01:17:32;12.33;;;11.97;;
79751;SDS011;69234;47.446;21.636;2024-03-07T01:18:03;12.47;;;12.17;;
79751;SDS011;69234;47.446;21.636;2024-03-07T01:18:34;12.73;;;12.43;;
79751;SDS011;69234;47.446;21.636;2024-03-07T01:19:06;12.07;;;11.77;;
79751;SDS011;69234;47.446;21.636;2024-03-07T01:19:38;12.77;;;12.37;;
79751;SDS011;69234;47.446;21.636;2024-03-07T01:20:09;12.47;;;12.27;;
79751;SDS011;69234;47.446;21.636;2024-03-07T01:20:41;12.10;;;11.97;;
79751;SDS011;69234;47.446;21.636;2024-03-07T01:21:12;13.00;;;12.73;;
79751;SDS011;69234;47.446;21.636;2024-03-07T01:21:43;12.97;;;12.80;;
79751;SDS011;69234;47.446;21.636;2024-03-07T01:22:14;12.23;;;12.10;;
79751;SDS011;69234;47.446;21.636;2024-03-07T01:22:47;12.23;;;12.20;;
79751;SDS011;69234;47.446;21.636;2024-03-07T01:24:40;13.10;;;12.73;;
79751;SDS011;69234;47.446;21.636;2024-03-07T01:26:37;12.30;;;11.97;;
79751;SDS011;69234;47.446;21.636;2024-03-07T01:27:09;13.10;;;12.70;;
79751;SDS011;69234;47.446;21.636;2024-03-07T01:27:40;12.33;;;12.17;;
79751;SDS011;69234;47.446;21.636;2024-03-07T01:28:11;11.63;;;11.63;;
79751;SDS011;69234;47.446;21.636;2024-03-07T01:28:44;11.40;;;11.33;;
79751;SDS011;69234;47.446;21.636;2024-03-07T01:29:15;12.13;;;12.13;;
79751;SDS011;69234;47.446;21.636;2024-03-07T01:29:46;12.10;;;11.93;;
79751;SDS011;69234;47.446;21.636;2024-03-07T01:30:17;12.00;;;11.67;;
79751;SDS011;69234;47.446;21.636;2024-03-07T01:30:48;13.23;;;12.77;;
79751;SDS011;69234;47.446;21.636;2024-03-07T01:31:23;12.50;;;12.07;;
79751;SDS011;69234;47.446;21.636;2024-03-07T01:33:03;11.57;;;11.53;;
79751;SDS011;69234;47.446;21.636;2024-03-07T01:33:34;11.73;;;11.73;;
79751;SDS011;69234;47.446;21.636;2024-03-07T01:34:05;11.37;;;11.33;;
79751;SDS011;69234;47.446;21.636;2024-03-07T01:34:36;12.33;;;12.23;;
79751;SDS011;69234;47.446;21.636;2024-03-07T01:35:07;11.60;;;11.57;;
79751;SDS011;69234;47.446;21.636;2024-03-07T01:35:38;11.63;;;11.40;;
79751;SDS011;69234;47.446;21.636;2024-03-07T01:36:09;12.03;;;11.70;;
79751;SDS011;69234;47.446;21.636;2024-03-07T01:36:40;11.67;;;11.30;;
79751;SDS011;69234;47.446;21.636;2024-03-07T01:37:11;11.53;;;11.13;;
79751;SDS011;69234;47.446;21.636;2024-03-07T01:37:47;11.30;;;11.13;;
79751;SDS011;69234;47.446;21.636;2024-03-07T01:39:18;12.13;;;12.13;;
79751;SDS011;69234;47.446;21.636;2024-03-07T01:39:49;12.53;;;12.30;;
79751;SDS011;69234;47.446;21.636;2024-03-07T01:40:20;12.17;;;11.87;;
79751;SDS011;69234;47.446;21.636;2024-03-07T01:40:51;12.23;;;11.90;;
79751;SDS011;69234;47.446;21.636;2024-03-07T01:41:22;11.97;;;11.77;;
79751;SDS011;69234;47.446;21.636;2024-03-07T01:41:53;11.70;;;11.47;;
79751;SDS011;69234;47.446;21.636;2024-03-07T01:42:24;11.37;;;11.13;;
79751;SDS011;69234;47.446;21.636;2024-03-07T01:42:55;11.07;;;11.03;;
79751;SDS011;69234;47.446;21.636;2024-03-07T01:43:26;11.63;;;11.60;;
79751;SDS011;69234;47.446;21.636;2024-03-07T01:43:57;12.40;;;12.10;;
79751;SDS011;69234;47.446;21.636;2024-03-07T01:44:27;13.27;;;12.87;;
79751;SDS011;69234;47.446;21.636;2024-03-07T01:45:01;12.50;;;12.10;;
79751;SDS011;69234;47.446;21.636;2024-03-07T01:45:32;12.37;;;11.93;;
79751;SDS011;69234;47.446;21.636;2024-03-07T01:46:03;12.23;;;11.80;;
79751;SDS011;69234;47.446;21.636;2024-03-07T01:46:35;12.27;;;11.90;;
79751;SDS011;69234;47.446;21.636;2024-03-07T01:47:06;12.80;;;12.43;;
79751;SDS011;69234;47.446;21.636;2024-03-07T01:47:37;13.20;;;12.93;;
79751;SDS011;69234;47.446;21.636;2024-03-07T01:48:09;13.37;;;13.10;;
79751;SDS011;69234;47.446;21.636;2024-03-07T01:48:42;12.50;;;12.23;;
79751;SDS011;69234;47.446;21.636;2024-03-07T01:49:14;14.40;;;14.03;;
79751;SDS011;69234;47.446;21.636;2024-03-07T01:49:44;14.67;;;14.30;;
79751;SDS011;69234;47.446;21.636;2024-03-07T01:50:15;14.83;;;14.50;;
79751;SDS011;69234;47.446;21.636;2024-03-07T01:50:48;14.77;;;14.53;;
79751;SDS011;69234;47.446;21.636;2024-03-07T01:51:19;15.23;;;14.97;;
79751;SDS011;69234;47.446;21.636;2024-03-07T01:51:51;14.93;;;14.73;;
79751;SDS011;69234;47.446;21.636;2024-03-07T01:52:22;14.10;;;13.87;;
79751;SDS011;69234;47.446;21.636;2024-03-07T01:52:53;14.13;;;14.00;;
79751;SDS011;69234;47.446;21.636;2024-03-07T01:53:27;14.10;;;13.93;;
79751;SDS011;69234;47.446;21.636;2024-03-07T01:53:59;14.70;;;14.63;;
79751;SDS011;69234;47.446;21.636;2024-03-07T01:54:30;16.33;;;16.23;;
79751;SDS011;69234;47.446;21.636;2024-03-07T01:55:02;15.83;;;15.70;;
79751;SDS011;69234;47.446;21.636;2024-03-07T01:55:33;15.13;;;14.97;;
79751;SDS011;69234;47.446;21.636;2024-03-07T01:56:04;14.50;;;14.37;;
79751;SDS011;69234;47.446;21.636;2024-03-07T01:56:36;14.00;;;13.90;;
79751;SDS011;69234;47.446;21.636;2024-03-07T01:57:08;14.60;;;14.50;;
79751;SDS011;69234;47.446;21.636;2024-03-07T01:57:40;13.10;;;13.00;;
79751;SDS011;69234;47.446;21.636;2024-03-07T01:58:11;13.17;;;13.10;;
79751;SDS011;69234;47.446;21.636;2024-03-07T01:58:47;13.70;;;13.50;;
79751;SDS011;69234;47.446;21.636;2024-03-07T01:59:22;13.00;;;12.87;;
79751;SDS011;69234;47.446;21.636;2024-03-07T01:59:54;12.50;;;12.40;;
79751;SDS011;69234;47.446;21.636;2024-03-07T02:00:25;12.23;;;12.07;;
79751;SDS011;69234;47.446;21.636;2024-03-07T02:00:56;12.47;;;12.37;;
79751;SDS011;69234;47.446;21.636;2024-03-07T02:01:28;12.57;;;12.57;;
79751;SDS011;69234;47.446;21.636;2024-03-07T02:02:00;13.03;;;13.03;;
79751;SDS011;69234;47.446;21.636;2024-03-07T02:02:35;12.73;;;12.73;;
79751;SDS011;69234;47.446;21.636;2024-03-07T02:03:52;13.87;;;13.87;;
79751;SDS011;69234;47.446;21.636;2024-03-07T02:04:23;13.20;;;13.20;;
79751;SDS011;69234;47.446;21.636;2024-03-07T02:04:54;13.23;;;13.23;;
79751;SDS011;69234;47.446;21.636;2024-03-07T02:05:25;12.77;;;12.77;;
79751;SDS011;69234;47.446;21.636;2024-03-07T02:05:56;14.10;;;13.83;;
79751;SDS011;69234;47.446;21.636;2024-03-07T02:06:27;13.40;;;13.33;;
79751;SDS011;69234;47.446;21.636;2024-03-07T02:06:59;13.73;;;13.47;;
79751;SDS011;69234;47.446;21.636;2024-03-07T02:07:30;14.10;;;13.70;;
79751;SDS011;69234;47.446;21.636;2024-03-07T02:08:01;13.20;;;12.87;;
79751;SDS011;69234;47.446;21.636;2024-03-07T02:08:32;12.67;;;12.20;;
79751;SDS011;69234;47.446;21.636;2024-03-07T02:09:03;13.53;;;13.07;;
79751;SDS011;69234;47.446;21.636;2024-03-07T02:09:35;13.60;;;13.13;;
79751;SDS011;69234;47.446;21.636;2024-03-07T02:10:07;13.27;;;12.83;;
79751;SDS011;69234;47.446;21.636;2024-03-07T02:10:41;13.20;;;13.03;;
79751;SDS011;69234;47.446;21.636;2024-03-07T02:12:15;12.47;;;12.27;;
79751;SDS011;69234;47.446;21.636;2024-03-07T02:12:46;12.77;;;12.47;;
79751;SDS011;69234;47.446;21.636;2024-03-07T02:13:17;13.90;;;13.43;;
79751;SDS011;69234;47.446;21.636;2024-03-07T02:13:48;13.97;;;13.53;;
79751;SDS011;69234;47.446;21.636;2024-03-07T02:14:19;13.40;;;13.00;;
79751;SDS011;69234;47.446;21.636;2024-03-07T02:14:50;14.20;;;13.83;;
79751;SDS011;69234;47.446;21.636;2024-03-07T02:15:21;13.93;;;13.60;;
79751;SDS011;69234;47.446;21.636;2024-03-07T02:15:52;13.63;;;13.20;;
79751;SDS011;69234;47.446;21.636;2024-03-07T02:16:24;13.90;;;13.37;;
79751;SDS011;69234;47.446;21.636;2024-03-07T02:16:55;13.67;;;13.13;;
79751;SDS011;69234;47.446;21.636;2024-03-07T02:17:27;12.93;;;12.63;;
79751;SDS011;69234;47.446;21.636;2024-03-07T02:17:59;13.20;;;13.10;;
79751;SDS011;69234;47.446;21.636;2024-03-07T02:18:30;13.43;;;13.13;;
79751;SDS011;69234;47.446;21.636;2024-03-07T02:19:01;13.90;;;13.63;;
79751;SDS011;69234;47.446;21.636;2024-03-07T02:19:32;13.00;;;12.73;;
79751;SDS011;69234;47.446;21.636;2024-03-07T02:20:03;13.03;;;12.63;;
79751;SDS011;69234;47.446;21.636;2024-03-07T02:20:37;13.53;;;13.20;;
79751;SDS011;69234;47.446;21.636;2024-03-07T02:21:13;14.80;;;14.27;;
79751;SDS011;69234;47.446;21.636;2024-03-07T02:21:44;15.00;;;14.57;;
79751;SDS011;69234;47.446;21.636;2024-03-07T02:22:15;14.87;;;14.37;;
79751;SDS011;69234;47.446;21.636;2024-03-07T02:22:47;14.53;;;14.10;;
79751;SDS011;69234;47.446;21.636;2024-03-07T02:23:18;15.13;;;14.63;;
79751;SDS011;69234;47.446;21.636;2024-03-07T02:23:48;14.70;;;14.47;;
79751;SDS011;69234;47.446;21.636;2024-03-07T02:24:19;14.40;;;14.40;;
79751;SDS011;69234;47.446;21.636;2024-03-07T02:24:50;14.57;;;14.57;;
79751;SDS011;69234;47.446;21.636;2024-03-07T02:25:21;15.03;;;14.97;;
79751;SDS011;69234;47.446;21.636;2024-03-07T02:25:52;13.83;;;13.83;;
79751;SDS011;69234;47.446;21.636;2024-03-07T02:26:23;13.97;;;13.97;;
79751;SDS011;69234;47.446;21.636;2024-03-07T02:26:54;14.03;;;14.03;;
79751;SDS011;69234;47.446;21.636;2024-03-07T02:27:25;14.70;;;14.63;;
79751;SDS011;69234;47.446;21.636;2024-03-07T02:27:56;14.40;;;14.37;;
79751;SDS011;69234;47.446;21.636;2024-03-07T02:28:27;13.10;;;13.07;;
79751;SDS011;69234;47.446;21.636;2024-03-07T02:28:58;13.83;;;13.73;;
79751;SDS011;69234;47.446;21.636;2024-03-07T02:29:29;14.87;;;14.77;;
79751;SDS011;69234;47.446;21.636;2024-03-07T02:30:00;15.47;;;15.47;;
79751;SDS011;69234;47.446;21.636;2024-03-07T02:30:34;15.63;;;15.63;;
79751;SDS011;69234;47.446;21.636;2024-03-07T02:31:05;14.57;;;14.57;;
79751;SDS011;69234;47.446;21.636;2024-03-07T02:31:36;15.20;;;15.20;;
79751;SDS011;69234;47.446;21.636;2024-03-07T02:32:11;15.23;;;15.23;;
79751;SDS011;69234;47.446;21.636;2024-03-07T02:32:42;16.13;;;16.07;;
79751;SDS011;69234;47.446;21.636;2024-03-07T02:33:17;17.30;;;16.93;;
79751;SDS011;69234;47.446;21.636;2024-03-07T02:33:48;16.07;;;16.03;;
79751;SDS011;69234;47.446;21.636;2024-03-07T02:34:19;16.67;;;16.60;;
79751;SDS011;69234;47.446;21.636;2024-03-07T02:34:50;16.80;;;16.67;;
79751;SDS011;69234;47.446;21.636;2024-03-07T02:35:21;17.30;;;17.03;;
79751;SDS011;69234;47.446;21.636;2024-03-07T02:35:52;16.33;;;16.07;;
79751;SDS011;69234;47.446;21.636;2024-03-07T02:36:23;16.23;;;15.90;;
79751;SDS011;69234;47.446;21.636;2024-03-07T02:36:55;16.60;;;16.20;;
79751;SDS011;69234;47.446;21.636;2024-03-07T02:37:26;16.77;;;16.30;;
79751;SDS011;69234;47.446;21.636;2024-03-07T02:37:57;17.17;;;16.97;;
79751;SDS011;69234;47.446;21.636;2024-03-07T02:38:28;16.77;;;16.63;;
79751;SDS011;69234;47.446;21.636;2024-03-07T02:38:59;17.00;;;16.90;;
79751;SDS011;69234;47.446;21.636;2024-03-07T02:39:30;16.57;;;16.57;;
79751;SDS011;69234;47.446;21.636;2024-03-07T02:40:01;16.40;;;16.40;;
79751;SDS011;69234;47.446;21.636;2024-03-07T02:40:32;15.63;;;15.63;;
79751;SDS011;69234;47.446;21.636;2024-03-07T02:41:03;16.50;;;16.50;;
79751;SDS011;69234;47.446;21.636;2024-03-07T02:41:34;16.77;;;16.77;;
79751;SDS011;69234;47.446;21.636;2024-03-07T02:42:06;16.37;;;16.37;;
79751;SDS011;69234;47.446;21.636;2024-03-07T02:42:36;16.63;;;16.57;;
79751;SDS011;69234;47.446;21.636;2024-03-07T02:43:07;17.20;;;16.80;;
79751;SDS011;69234;47.446;21.636;2024-03-07T02:43:38;18.40;;;17.87;;
79751;SDS011;69234;47.446;21.636;2024-03-07T02:44:09;17.60;;;17.60;;
79751;SDS011;69234;47.446;21.636;2024-03-07T02:44:42;17.87;;;17.80;;
79751;SDS011;69234;47.446;21.636;2024-03-07T02:45:13;18.10;;;17.53;;
79751;SDS011;69234;47.446;21.636;2024-03-07T02:45:44;17.70;;;17.07;;
79751;SDS011;69234;47.446;21.636;2024-03-07T02:46:15;17.47;;;16.90;;
79751;SDS011;69234;47.446;21.636;2024-03-07T02:46:46;18.10;;;17.50;;
79751;SDS011;69234;47.446;21.636;2024-03-07T02:47:18;16.57;;;16.53;;
79751;SDS011;69234;47.446;21.636;2024-03-07T02:47:49;17.03;;;16.97;;
79751;SDS011;69234;47.446;21.636;2024-03-07T02:48:20;18.27;;;17.77;;
79751;SDS011;69234;47.446;21.636;2024-03-07T02:48:51;19.17;;;18.60;;
79751;SDS011;69234;47.446;21.636;2024-03-07T02:49:22;17.87;;;17.73;;
79751;SDS011;69234;47.446;21.636;2024-03-07T02:49:53;18.23;;;18.07;;
79751;SDS011;69234;47.446;21.636;2024-03-07T02:50:24;19.07;;;18.50;;
79751;SDS011;69234;47.446;21.636;2024-03-07T02:50:55;19.20;;;18.50;;
79751;SDS011;69234;47.446;21.636;2024-03-07T02:51:26;17.90;;;17.67;;
79751;SDS011;69234;47.446;21.636;2024-03-07T02:51:57;17.57;;;17.47;;
79751;SDS011;69234;47.446;21.636;2024-03-07T02:52:28;17.97;;;17.47;;
79751;SDS011;69234;47.446;21.636;2024-03-07T02:52:59;18.30;;;17.97;;
79751;SDS011;69234;47.446;21.636;2024-03-07T02:53:30;18.00;;;17.80;;
79751;SDS011;69234;47.446;21.636;2024-03-07T02:54:01;19.80;;;19.13;;
79751;SDS011;69234;47.446;21.636;2024-03-07T02:54:35;19.20;;;18.33;;
79751;SDS011;69234;47.446;21.636;2024-03-07T02:55:06;19.07;;;18.27;;
79751;SDS011;69234;47.446;21.636;2024-03-07T02:55:40;18.17;;;17.43;;
79751;SDS011;69234;47.446;21.636;2024-03-07T02:56:11;18.07;;;17.33;;
79751;SDS011;69234;47.446;21.636;2024-03-07T02:56:42;18.47;;;17.73;;
79751;SDS011;69234;47.446;21.636;2024-03-07T02:57:13;18.47;;;18.23;;
79751;SDS011;69234;47.446;21.636;2024-03-07T02:57:44;18.47;;;18.47;;
79751;SDS011;69234;47.446;21.636;2024-03-07T02:58:18;18.27;;;18.27;;
79751;SDS011;69234;47.446;21.636;2024-03-07T02:58:49;17.70;;;17.70;;
79751;SDS011;69234;47.446;21.636;2024-03-07T02:59:20;18.10;;;18.10;;
79751;SDS011;69234;47.446;21.636;2024-03-07T02:59:51;17.93;;;17.93;;
79751;SDS011;69234;47.446;21.636;2024-03-07T03:00:22;18.70;;;18.60;;
79751;SDS011;69234;47.446;21.636;2024-03-07T03:01:02;17.40;;;17.23;;
79751;SDS011;69234;47.446;21.636;2024-03-07T03:01:33;18.57;;;18.53;;
79751;SDS011;69234;47.446;21.636;2024-03-07T03:02:05;18.33;;;18.13;;
79751;SDS011;69234;47.446;21.636;2024-03-07T03:02:36;18.47;;;18.20;;
79751;SDS011;69234;47.446;21.636;2024-03-07T03:03:08;17.77;;;17.73;;
79751;SDS011;69234;47.446;21.636;2024-03-07T03:03:39;19.23;;;19.17;;
79751;SDS011;69234;47.446;21.636;2024-03-07T03:04:12;18.67;;;18.40;;
79751;SDS011;69234;47.446;21.636;2024-03-07T03:04:44;18.07;;;18.07;;
79751;SDS011;69234;47.446;21.636;2024-03-07T03:05:16;17.90;;;17.53;;
79751;SDS011;69234;47.446;21.636;2024-03-07T03:05:50;18.97;;;18.20;;
79751;SDS011;69234;47.446;21.636;2024-03-07T03:06:21;19.13;;;18.80;;
79751;SDS011;69234;47.446;21.636;2024-03-07T03:06:54;18.07;;;18.03;;
79751;SDS011;69234;47.446;21.636;2024-03-07T03:07:26;17.40;;;17.20;;
79751;SDS011;69234;47.446;21.636;2024-03-07T03:07:57;18.03;;;17.83;;
79751;SDS011;69234;47.446;21.636;2024-03-07T03:08:28;18.17;;;17.83;;
79751;SDS011;69234;47.446;21.636;2024-03-07T03:08:59;18.43;;;17.93;;
79751;SDS011;69234;47.446;21.636;2024-03-07T03:09:30;17.47;;;17.37;;
79751;SDS011;69234;47.446;21.636;2024-03-07T03:10:03;17.93;;;17.93;;
79751;SDS011;69234;47.446;21.636;2024-03-07T03:10:39;18.17;;;18.13;;
79751;SDS011;69234;47.446;21.636;2024-03-07T03:11:11;17.43;;;17.43;;
79751;SDS011;69234;47.446;21.636;2024-03-07T03:11:44;18.30;;;18.30;;
79751;SDS011;69234;47.446;21.636;2024-03-07T03:12:15;17.40;;;17.40;;
79751;SDS011;69234;47.446;21.636;2024-03-07T03:12:46;17.57;;;17.40;;
79751;SDS011;69234;47.446;21.636;2024-03-07T03:13:17;19.10;;;18.43;;
79751;SDS011;69234;47.446;21.636;2024-03-07T03:13:48;19.50;;;18.83;;
79751;SDS011;69234;47.446;21.636;2024-03-07T03:14:19;18.00;;;17.77;;
79751;SDS011;69234;47.446;21.636;2024-03-07T03:14:51;17.63;;;17.47;;
79751;SDS011;69234;47.446;21.636;2024-03-07T03:15:23;17.70;;;17.47;;
79751;SDS011;69234;47.446;21.636;2024-03-07T03:15:55;17.93;;;17.77;;
79751;SDS011;69234;47.446;21.636;2024-03-07T03:16:26;18.07;;;17.87;;
79751;SDS011;69234;47.446;21.636;2024-03-07T03:16:57;17.70;;;17.53;;
79751;SDS011;69234;47.446;21.636;2024-03-07T03:17:28;17.70;;;17.63;;
79751;SDS011;69234;47.446;21.636;2024-03-07T03:17:59;17.93;;;17.70;;
79751;SDS011;69234;47.446;21.636;2024-03-07T03:18:36;17.87;;;17.83;;
79751;SDS011;69234;47.446;21.636;2024-03-07T03:20:04;18.33;;;18.00;;
79751;SDS011;69234;47.446;21.636;2024-03-07T03:20:45;18.20;;;17.97;;
79751;SDS011;69234;47.446;21.636;2024-03-07T03:21:18;18.57;;;18.07;;
79751;SDS011;69234;47.446;21.636;2024-03-07T03:21:49;17.83;;;17.63;;
79751;SDS011;69234;47.446;21.636;2024-03-07T03:22:20;17.23;;;17.20;;
79751;SDS011;69234;47.446;21.636;2024-03-07T03:22:53;18.60;;;18.53;;
79751;SDS011;69234;47.446;21.636;2024-03-07T03:23:24;18.83;;;18.47;;
79751;SDS011;69234;47.446;21.636;2024-03-07T03:23:55;18.43;;;17.93;;
79751;SDS011;69234;47.446;21.636;2024-03-07T03:24:26;17.93;;;17.70;;
79751;SDS011;69234;47.446;21.636;2024-03-07T03:24:57;17.77;;;17.73;;
79751;SDS011;69234;47.446;21.636;2024-03-07T03:25:28;18.23;;;18.23;;
79751;SDS011;69234;47.446;21.636;2024-03-07T03:26:05;17.07;;;17.07;;
79751;SDS011;69234;47.446;21.636;2024-03-07T03:26:36;16.97;;;16.97;;
79751;SDS011;69234;47.446;21.636;2024-03-07T03:27:07;17.43;;;17.40;;
79751;SDS011;69234;47.446;21.636;2024-03-07T03:27:38;17.37;;;17.23;;
79751;SDS011;69234;47.446;21.636;2024-03-07T03:28:10;17.17;;;16.83;;
79751;SDS011;69234;47.446;21.636;2024-03-07T03:28:41;17.30;;;16.73;;
79751;SDS011;69234;47.446;21.636;2024-03-07T03:29:12;17.97;;;17.30;;
79751;SDS011;69234;47.446;21.636;2024-03-07T03:29:44;18.00;;;17.37;;
79751;SDS011;69234;47.446;21.636;2024-03-07T03:30:15;17.63;;;17.03;;